Time;durP1;ratioP1;P1;durP2;ratioP2;P2;SDS_P1;SDS_P2;PMS_P1;PMS_P2;Temp;Humidity;BMP_temperature;BMP_pressure;BME280_temperature;BME280_humidity;BME280_pressure;Samples;Min_cycle;Max_cycle;Signal;HPM_P1;HPM_P2
2023/10/17 00:01:34;;;;;;;16.13;7.10;;;8.90;99.90;;;;;;5084008;28;20052;-64
2023/10/17 00:04:38;;;;;;;16.83;6.43;;;8.90;99.90;;;;;;5081339;28;20032;-65
2023/10/17 00:06:58;;;;;;;16.10;6.97;;;8.90;99.90;;;;;;5080143;28;20105;-65
2023/10/17 00:09:32;;;;;;;15.43;5.93;;;8.90;99.90;;;;;;5081953;28;20020;-64
2023/10/17 00:11:58;;;;;;;15.00;6.57;;;9.00;99.90;;;;;;5082763;28;20034;-65
2023/10/17 00:14:35;;;;;;;16.08;6.60;;;9.00;99.90;;;;;;5082151;28;20107;-66
2023/10/17 00:17:03;;;;;;;19.42;7.15;;;9.00;99.90;;;;;;5081479;28;20083;-65
2023/10/17 00:19:32;;;;;;;13.77;6.15;;;9.00;99.90;;;;;;5080234;28;20020;-65
2023/10/17 00:22:03;;;;;;;16.45;6.38;;;9.00;99.90;;;;;;5083029;28;20027;-66
2023/10/17 00:24:29;;;;;;;13.27;6.10;;;9.10;99.90;;;;;;5083379;28;20085;-65
2023/10/17 00:26:54;;;;;;;13.13;6.15;;;9.10;99.90;;;;;;5080591;28;20016;-65
2023/10/17 00:29:20;;;;;;;14.38;5.90;;;9.10;99.90;;;;;;5080781;28;20032;-66
2023/10/17 00:31:46;;;;;;;16.17;6.50;;;9.10;99.90;;;;;;5081404;28;20097;-64
2023/10/17 00:36:48;;;;;;;18.17;5.80;;;9.10;99.90;;;;;;5081245;28;20044;-65
2023/10/17 00:39:30;;;;;;;14.90;5.47;;;9.20;99.90;;;;;;5084814;28;20062;-66
2023/10/17 00:44:33;;;;;;;18.33;6.95;;;9.20;99.90;;;;;;5090501;28;20063;-65
2023/10/17 00:46:59;;;;;;;15.82;5.82;;;9.20;99.90;;;;;;5092109;28;20074;-64
2023/10/17 00:49:26;;;;;;;16.20;5.80;;;9.20;99.90;;;;;;5090405;28;20395;-64
2023/10/17 00:51:55;;;;;;;17.90;5.32;;;9.30;99.90;;;;;;5090874;28;20073;-65
2023/10/17 00:54:25;;;;;;;15.68;5.53;;;9.30;99.90;;;;;;5091072;28;20070;-65
2023/10/17 00:56:55;;;;;;;17.08;5.40;;;9.30;99.90;;;;;;5092054;28;20032;-64
2023/10/17 00:59:24;;;;;;;17.15;5.38;;;9.30;99.90;;;;;;5090791;28;20050;-65
2023/10/17 01:01:51;;;;;;;17.67;4.63;;;9.40;99.90;;;;;;5096362;28;20024;-64
2023/10/17 01:04:19;;;;;;;15.65;5.32;;;9.40;99.90;;;;;;5096293;28;20032;-64
2023/10/17 01:06:45;;;;;;;15.73;4.93;;;9.40;99.90;;;;;;5095606;28;20016;-65
2023/10/17 01:09:24;;;;;;;14.27;5.00;;;9.40;99.90;;;;;;5095242;28;20107;-64
2023/10/17 01:11:50;;;;;;;11.02;4.03;;;9.40;99.90;;;;;;5095231;28;20391;-65
2023/10/17 01:14:18;;;;;;;10.18;4.00;;;9.40;99.90;;;;;;5094993;28;20028;-64
2023/10/17 01:16:51;;;;;;;18.48;4.90;;;9.40;99.90;;;;;;5096118;28;20487;-65
2023/10/17 01:19:19;;;;;;;12.70;4.80;;;9.40;99.90;;;;;;5094752;28;20041;-65
2023/10/17 01:21:45;;;;;;;15.38;4.50;;;9.40;99.90;;;;;;5095793;28;20032;-65
2023/10/17 01:24:11;;;;;;;12.57;4.28;;;9.40;99.90;;;;;;5097926;28;20111;-65
2023/10/17 01:26:38;;;;;;;13.07;4.53;;;9.40;99.90;;;;;;5116183;28;20118;-64
2023/10/17 01:29:10;;;;;;;12.38;3.38;;;9.40;99.90;;;;;;5110167;28;20102;-65
2023/10/17 01:31:39;;;;;;;13.20;4.15;;;9.40;99.90;;;;;;5114814;28;20032;-65
2023/10/17 01:34:06;;;;;;;12.75;3.67;;;9.40;99.90;;;;;;5102669;28;20028;-64
2023/10/17 01:36:31;;;;;;;9.07;3.67;;;9.50;99.90;;;;;;5101083;28;20047;-65
2023/10/17 01:38:57;;;;;;;16.00;3.90;;;9.40;99.90;;;;;;5101478;28;20036;-64
2023/10/17 01:41:22;;;;;;;14.20;4.03;;;9.40;99.90;;;;;;5105357;28;20028;-66
2023/10/17 01:43:50;;;;;;;17.48;3.60;;;9.50;99.90;;;;;;5097793;27;20391;-65
2023/10/17 01:46:17;;;;;;;10.98;3.65;;;9.50;99.90;;;;;;5094135;28;20043;-64
2023/10/17 01:48:48;;;;;;;15.07;4.07;;;9.50;99.90;;;;;;5104994;28;20498;-65
2023/10/17 01:51:19;;;;;;;12.23;3.58;;;9.50;99.90;;;;;;5115718;28;20024;-66
2023/10/17 01:53:50;;;;;;;12.95;3.78;;;9.50;99.90;;;;;;5107419;28;20024;-66
2023/10/17 01:56:16;;;;;;;16.70;4.32;;;9.50;99.90;;;;;;5075160;28;20045;-65
2023/10/17 01:58:45;;;;;;;10.45;3.22;;;9.50;99.90;;;;;;5094437;28;20430;-65
2023/10/17 02:01:14;;;;;;;8.18;3.70;;;9.50;99.90;;;;;;5102818;28;20169;-64
2023/10/17 02:03:40;;;;;;;8.77;3.35;;;9.50;99.90;;;;;;5094020;28;20057;-66
2023/10/17 02:06:14;;;;;;;13.52;4.10;;;9.50;99.90;;;;;;5100340;28;20119;-64
2023/10/17 02:08:46;;;;;;;12.75;4.20;;;9.50;99.90;;;;;;5115578;28;20028;-64
2023/10/17 02:11:25;;;;;;;11.10;3.67;;;9.50;99.90;;;;;;5100486;28;20200;-66
2023/10/17 02:13:56;;;;;;;12.23;3.97;;;9.50;99.90;;;;;;5094046;28;20047;-65
2023/10/17 02:16:28;;;;;;;14.23;4.63;;;9.50;99.90;;;;;;5098647;28;20039;-66
2023/10/17 02:18:54;;;;;;;;;;;9.50;99.90;;;;;;5095880;28;20133;-64
2023/10/17 02:21:21;;;;;;;15.77;4.38;;;9.50;99.90;;;;;;5094815;28;19998;-65
2023/10/17 02:23:49;;;;;;;13.55;4.00;;;9.50;99.90;;;;;;5103479;28;20024;-65
2023/10/17 02:26:21;;;;;;;11.88;3.88;;;9.50;99.90;;;;;;5099772;28;20032;-65
2023/10/17 02:28:50;;;;;;;10.85;3.88;;;9.50;99.90;;;;;;5101740;28;20024;-65
2023/10/17 02:31:16;;;;;;;11.48;4.43;;;9.50;99.90;;;;;;5103706;28;20027;-66
2023/10/17 02:33:43;;;;;;;11.68;3.75;;;9.50;99.90;;;;;;5104671;28;20028;-65
2023/10/17 02:36:16;;;;;;;13.77;3.90;;;9.60;99.90;;;;;;5101263;28;20048;-64
2023/10/17 02:38:43;;;;;;;12.32;4.60;;;9.50;99.90;;;;;;5103307;28;20052;-64
2023/10/17 02:41:18;;;;;;;15.43;4.20;;;9.50;99.90;;;;;;5104159;28;20383;-64
2023/10/17 02:43:48;;;;;;;12.23;3.78;;;9.50;99.90;;;;;;5100898;28;20054;-65
2023/10/17 02:46:14;;;;;;;11.18;3.88;;;9.60;99.90;;;;;;5104495;28;20464;-65
2023/10/17 02:48:42;;;;;;;11.63;4.43;;;9.50;99.90;;;;;;5102858;28;20032;-65
2023/10/17 02:53:52;;;;;;;15.20;4.88;;;9.60;99.90;;;;;;5099934;28;20028;-65
2023/10/17 02:56:21;;;;;;;13.95;4.32;;;9.50;99.90;;;;;;5104378;28;20039;-65
2023/10/17 02:59:06;;;;;;;13.15;4.80;;;9.50;99.90;;;;;;5104578;28;20024;-64
2023/10/17 03:01:33;;;;;;;13.90;5.72;;;9.50;99.90;;;;;;5104741;28;20028;-66
2023/10/17 03:04:07;;;;;;;11.13;5.10;;;9.40;99.90;;;;;;5101100;28;20115;-64
2023/10/17 03:06:37;;;;;;;10.73;4.78;;;9.40;99.90;;;;;;5100478;28;20016;-66
2023/10/17 03:09:15;;;;;;;12.88;4.97;;;9.40;99.90;;;;;;5103562;28;20529;-65
2023/10/17 03:11:50;;;;;;;14.80;5.90;;;9.40;99.90;;;;;;5101537;28;20357;-65
2023/10/17 03:14:19;;;;;;;12.70;5.32;;;9.30;99.90;;;;;;5099757;28;20047;-65
2023/10/17 03:16:54;;;;;;;10.57;5.15;;;9.30;99.90;;;;;;5102947;28;20487;-65
2023/10/17 03:19:27;;;;;;;14.48;5.53;;;9.30;99.90;;;;;;5097367;28;20036;-65
2023/10/17 03:21:58;;;;;;;10.10;4.68;;;9.30;99.90;;;;;;5105321;28;20063;-65
2023/10/17 03:24:39;;;;;;;13.50;4.85;;;9.20;99.90;;;;;;5093911;28;20051;-65
2023/10/17 03:27:11;;;;;;;15.02;4.90;;;9.20;99.90;;;;;;5093624;28;20076;-65
2023/10/17 03:29:36;;;;;;;13.02;5.07;;;9.20;99.90;;;;;;5105198;28;20208;-65
2023/10/17 03:32:11;;;;;;;15.40;5.10;;;9.10;99.90;;;;;;5110165;28;20042;-65
2023/10/17 03:34:37;;;;;;;11.15;4.47;;;9.10;99.90;;;;;;5111611;28;20036;-65
2023/10/17 03:37:26;;;;;;;12.55;4.90;;;9.10;99.90;;;;;;5092466;28;20500;-66
2023/10/17 03:40:00;;;;;;;12.77;5.05;;;9.10;99.90;;;;;;5093026;28;20021;-65
2023/10/17 03:44:58;;;;;;;15.65;5.00;;;9.00;99.90;;;;;;5101137;28;20026;-66
2023/10/17 03:47:26;;;;;;;15.95;4.95;;;9.00;99.90;;;;;;5096150;28;20027;-65
2023/10/17 03:49:55;;;;;;;12.32;5.15;;;9.00;99.90;;;;;;5106636;28;20035;-65
2023/10/17 03:52:22;;;;;;;13.23;5.13;;;8.90;99.90;;;;;;5094267;28;20048;-65
2023/10/17 03:54:47;;;;;;;12.57;5.80;;;8.90;99.90;;;;;;5100760;28;20067;-65
2023/10/17 03:57:16;;;;;;;13.55;5.53;;;8.90;99.90;;;;;;5101869;28;20440;-65
2023/10/17 03:59:42;;;;;;;14.18;5.45;;;8.90;99.90;;;;;;5097852;28;20471;-65
2023/10/17 04:02:21;;;;;;;17.50;6.18;;;8.90;99.90;;;;;;5110476;28;20023;-65
2023/10/17 04:04:53;;;;;;;19.75;7.18;;;8.90;99.90;;;;;;5073100;28;20043;-65
2023/10/17 04:07:22;;;;;;;15.88;6.32;;;8.90;99.90;;;;;;5094974;28;20035;-65
2023/10/17 04:10:17;;;;;;;15.05;6.00;;;8.90;99.90;;;;;;5113494;28;20036;-65
2023/10/17 04:12:48;;;;;;;18.08;5.22;;;8.90;99.90;;;;;;5107201;28;20112;-65
2023/10/17 04:15:18;;;;;;;13.52;4.57;;;8.90;99.90;;;;;;5101340;28;20032;-64
2023/10/17 04:17:46;;;;;;;15.10;4.32;;;8.90;99.90;;;;;;5107392;28;20028;-64
2023/10/17 04:20:12;;;;;;;43.58;7.00;;;8.90;99.90;;;;;;5099466;28;20044;-65
2023/10/17 04:22:40;;;;;;;9.73;4.30;;;8.90;99.90;;;;;;5102344;28;20019;-64
2023/10/17 04:28:00;;;;;;;10.70;3.67;;;8.90;99.90;;;;;;5096794;28;20030;-65
2023/10/17 04:33:12;;;;;;;13.75;4.00;;;9.00;99.90;;;;;;5106395;28;20042;-65
2023/10/17 04:35:48;;;;;;;38.13;5.95;;;9.00;99.90;;;;;;5107623;28;20047;-65
2023/10/17 04:40:50;;;;;;;13.02;3.80;;;8.90;99.90;;;;;;5101876;28;20038;-64
2023/10/17 04:45:45;;;;;;;12.88;4.88;;;8.90;99.90;;;;;;5100618;28;20161;-65
2023/10/17 04:48:11;;;;;;;14.55;4.70;;;8.90;99.90;;;;;;5095551;28;20103;-64
2023/10/17 04:50:44;;;;;;;9.65;4.35;;;8.90;99.90;;;;;;5098640;28;20036;-66
2023/10/17 04:53:19;;;;;;;22.83;5.38;;;8.90;99.90;;;;;;5104365;28;20052;-65
2023/10/17 04:56:03;;;;;;;12.93;4.82;;;8.80;99.90;;;;;;5106428;28;20115;-65
2023/10/17 04:58:33;;;;;;;15.23;5.07;;;8.80;99.90;;;;;;5104514;28;20033;-64
2023/10/17 05:03:45;;;;;;;12.43;4.63;;;8.70;99.90;;;;;;5109441;28;20032;-65
2023/10/17 06:17:07;;;;;;;18.52;6.40;;;8.10;99.90;;;;;;5076273;28;20040;-65
2023/10/17 06:19:33;;;;;;;16.65;6.13;;;8.10;99.90;;;;;;5094737;28;20040;-65
2023/10/17 06:30:26;;;;;;;18.52;5.93;;;8.10;99.90;;;;;;5074558;28;20039;-65
2023/10/17 06:35:22;;;;;;;13.95;5.55;;;8.10;99.90;;;;;;5074312;28;20098;-65
2023/10/17 06:37:50;;;;;;;13.85;6.03;;;8.10;99.90;;;;;;5074292;28;20036;-65
2023/10/17 06:40:16;;;;;;;15.07;5.70;;;8.10;99.90;;;;;;5074361;28;20077;-64
2023/10/17 06:42:58;;;;;;;15.40;5.90;;;8.10;99.90;;;;;;5079138;28;20051;-65
2023/10/17 06:45:24;;;;;;;38.42;7.57;;;8.20;99.90;;;;;;5091776;28;20050;-64
2023/10/17 06:47:49;;;;;;;18.92;5.60;;;8.20;99.90;;;;;;5090829;28;20461;-64
2023/10/17 06:58:09;;;;;;;14.88;6.00;;;8.40;99.90;;;;;;5084083;28;20097;-64
2023/10/17 07:00:51;;;;;;;16.23;5.88;;;8.40;99.90;;;;;;5082299;28;20111;-64
2023/10/17 07:03:24;;;;;;;;;;;8.50;99.90;;;;;;5084210;28;20066;-64
2023/10/17 07:06:01;;;;;;;14.77;5.60;;;8.50;99.90;;;;;;5085933;28;19962;-64
2023/10/17 07:08:36;;;;;;;18.42;5.72;;;8.50;99.90;;;;;;5082840;28;20050;-64
2023/10/17 07:11:26;;;;;;;14.50;6.43;;;8.60;99.90;;;;;;5088315;28;20495;-64
2023/10/17 07:16:45;;;;;;;13.60;5.72;;;8.70;99.90;;;;;;5079615;28;20050;-65
2023/10/17 07:24:33;;;;;;;13.80;5.97;;;8.90;99.90;;;;;;5081878;28;20029;-65
2023/10/17 07:27:11;;;;;;;11.48;5.65;;;8.90;99.90;;;;;;5082436;28;20028;-65
2023/10/17 07:29:37;;;;;;;12.13;5.38;;;9.00;99.90;;;;;;5081425;28;20112;-65
2023/10/17 07:32:09;;;;;;;14.18;6.10;;;9.10;99.90;;;;;;5081845;28;20376;-65
2023/10/17 07:34:36;;;;;;;14.32;5.60;;;9.20;99.90;;;;;;5082108;28;20023;-65
2023/10/17 07:37:14;;;;;;;19.70;5.85;;;9.30;99.90;;;;;;5082140;28;20055;-64
2023/10/17 07:39:40;;;;;;;14.30;5.53;;;9.40;99.90;;;;;;5081486;28;20025;-65
2023/10/17 07:42:14;;;;;;;15.25;6.22;;;9.40;99.90;;;;;;5083223;28;20032;-65
2023/10/17 07:44:41;;;;;;;16.42;6.30;;;9.50;99.90;;;;;;5083031;28;20036;-65
2023/10/17 07:49:35;;;;;;;14.75;5.70;;;9.70;99.90;;;;;;5083219;28;20031;-65
2023/10/17 07:52:12;;;;;;;19.05;5.40;;;9.80;99.90;;;;;;5080711;28;20052;-65
2023/10/17 07:54:58;;;;;;;12.00;4.90;;;9.90;99.90;;;;;;5101073;28;20032;-65
2023/10/17 07:57:28;;;;;;;12.63;4.60;;;10.00;99.90;;;;;;5104423;28;20065;-64
2023/10/17 07:59:57;;;;;;;14.02;4.38;;;10.10;99.90;;;;;;5112085;28;20043;-65
2023/10/17 08:02:23;;;;;;;11.73;4.22;;;10.30;99.90;;;;;;5113728;28;20092;-64
2023/10/17 08:04:51;;;;;;;8.32;3.20;;;10.40;99.90;;;;;;5096471;28;20028;-64
2023/10/17 08:07:20;;;;;;;11.13;3.30;;;10.50;99.90;;;;;;5079808;28;20459;-65
2023/10/17 08:09:58;;;;;;;11.45;3.50;;;10.70;99.90;;;;;;5104432;28;20028;-64
2023/10/17 08:12:25;;;;;;;8.50;2.90;;;10.80;99.90;;;;;;5101776;28;20059;-65
2023/10/17 08:15:17;;;;;;;7.45;2.78;;;11.00;99.90;;;;;;5109199;28;20031;-65
2023/10/17 08:17:43;;;;;;;8.98;3.22;;;11.20;99.90;;;;;;5086901;28;20062;-65
2023/10/17 08:20:45;;;;;;;10.63;3.55;;;11.50;99.90;;;;;;5102130;28;20020;-65
2023/10/17 08:22:55;;;;;;;10.10;3.58;;;11.80;99.90;;;;;;5109129;28;20035;-65
2023/10/17 08:25:30;;;;;;;8.63;2.72;;;12.30;99.90;;;;;;5096648;28;20035;-65
2023/10/17 08:27:56;;;;;;;9.05;2.60;;;13.00;99.90;;;;;;5104095;28;20564;-65
2023/10/17 08:30:34;;;;;;;6.65;2.80;;;13.90;99.90;;;;;;5105042;28;20031;-66
2023/10/17 08:35:38;;;;;;;5.88;2.20;;;15.60;99.90;;;;;;5107364;28;20051;-65
2023/10/17 08:38:06;;;;;;;10.88;2.17;;;16.50;99.90;;;;;;5095886;28;20074;-65
2023/10/17 08:40:32;;;;;;;9.55;2.00;;;17.20;99.90;;;;;;5099191;28;20062;-65
2023/10/17 08:43:06;;;;;;;5.50;1.98;;;17.90;99.90;;;;;;5108965;28;20123;-64
2023/10/17 08:45:37;;;;;;;6.65;2.10;;;18.50;99.90;;;;;;5098281;28;20023;-64
2023/10/17 08:48:05;;;;;;;6.85;1.75;;;19.20;99.40;;;;;;5102622;28;20028;-65
2023/10/17 08:50:37;;;;;;;5.22;1.83;;;19.90;98.50;;;;;;5106122;28;20039;-65
2023/10/17 08:53:06;;;;;;;4.70;1.65;;;20.60;97.50;;;;;;5095796;28;20063;-65
2023/10/17 08:55:32;;;;;;;6.47;1.77;;;21.30;96.60;;;;;;5105458;28;20032;-65
2023/10/17 08:57:59;;;;;;;3.63;1.48;;;21.80;95.60;;;;;;5101625;28;20027;-65
2023/10/17 09:03:20;;;;;;;3.85;1.40;;;22.20;93.60;;;;;;5102810;28;20039;-65
2023/10/17 09:11:14;;;;;;;4.47;1.48;;;21.80;93.50;;;;;;5100772;28;20046;-65
2023/10/17 09:14:10;;;;;;;5.57;1.58;;;21.80;93.30;;;;;;5111956;28;20032;-65
2023/10/17 09:16:34;;;;;;;5.72;1.90;;;21.80;92.80;;;;;;5098436;28;20040;-65
2023/10/17 09:19:09;;;;;;;5.82;1.80;;;21.80;93.60;;;;;;5108859;28;20027;-65
2023/10/17 09:21:35;;;;;;;6.60;1.95;;;21.80;93.40;;;;;;5099992;28;20452;-65
2023/10/17 09:24:00;;;;;;;4.57;1.70;;;21.80;93.10;;;;;;5104385;28;20055;-64
2023/10/17 09:26:26;;;;;;;4.07;1.77;;;21.80;93.40;;;;;;5100927;28;20471;-65
2023/10/17 09:29:00;;;;;;;6.93;2.03;;;22.00;93.30;;;;;;5112490;28;20102;-64
2023/10/17 09:31:26;;;;;;;6.15;1.88;;;21.90;93.00;;;;;;5095370;28;20058;-64
2023/10/17 09:33:53;;;;;;;5.97;1.50;;;21.90;92.50;;;;;;5104104;28;20023;-64
2023/10/17 09:36:19;;;;;;;5.68;1.70;;;21.80;92.30;;;;;;5103275;28;20498;-64
2023/10/17 09:38:46;;;;;;;4.05;1.90;;;21.80;92.50;;;;;;5111553;28;20020;-64
2023/10/17 09:41:18;;;;;;;6.07;1.75;;;21.70;92.20;;;;;;5098739;28;20123;-64
2023/10/17 09:43:49;;;;;;;;;;;21.70;93.00;;;;;;5108458;28;20460;-64
2023/10/17 09:46:17;;;;;;;3.15;1.55;;;22.00;92.50;;;;;;5107250;28;19965;-64
2023/10/17 09:48:45;;;;;;;4.22;1.70;;;22.10;92.50;;;;;;5100090;28;20060;-64
2023/10/17 09:51:26;;;;;;;4.28;1.42;;;22.40;92.50;;;;;;5111841;28;20024;-65
2023/10/17 09:53:58;;;;;;;2.72;1.35;;;22.80;91.70;;;;;;5102784;28;20069;-64
2023/10/17 09:56:38;;;;;;;4.40;1.50;;;23.20;91.70;;;;;;5102454;28;20101;-64
2023/10/17 09:59:11;;;;;;;3.33;1.42;;;23.40;90.20;;;;;;5109078;28;20024;-64
2023/10/17 10:01:39;;;;;;;4.25;1.25;;;23.30;90.40;;;;;;5115326;28;20020;-64
2023/10/17 10:04:07;;;;;;;3.15;1.20;;;23.30;90.80;;;;;;5104992;28;20494;-65
2023/10/17 10:06:34;;;;;;;2.95;1.17;;;23.10;89.30;;;;;;5109166;28;20711;-64
2023/10/17 10:09:14;;;;;;;3.08;1.13;;;22.60;89.90;;;;;;5098359;27;20106;-64
2023/10/17 10:11:49;;;;;;;4.32;0.98;;;22.10;90.30;;;;;;5108666;28;20016;-64
2023/10/17 10:14:27;;;;;;;5.25;1.25;;;21.80;90.20;;;;;;5106596;28;20024;-64
2023/10/17 10:17:02;;;;;;;5.82;1.40;;;21.80;90.60;;;;;;5097980;28;20035;-64
2023/10/17 10:19:40;;;;;;;5.80;1.27;;;22.00;90.60;;;;;;5109694;28;20383;-64
2023/10/17 10:22:07;;;;;;;4.57;1.08;;;22.00;90.70;;;;;;5105365;28;20023;-65
2023/10/17 10:24:36;;;;;;;4.97;1.30;;;22.00;90.70;;;;;;5100689;28;20020;-64
2023/10/17 10:27:14;;;;;;;2.92;1.08;;;22.10;90.70;;;;;;5111185;28;20367;-65
2023/10/17 10:29:40;;;;;;;2.65;0.90;;;22.50;90.70;;;;;;5101337;28;20092;-64
2023/10/17 10:32:26;;;;;;;5.38;1.40;;;22.80;90.40;;;;;;5103368;28;20055;-65
2023/10/17 10:34:53;;;;;;;4.65;1.42;;;23.10;90.20;;;;;;5110901;28;20456;-65
2023/10/17 10:37:22;;;;;;;5.70;1.02;;;23.30;89.80;;;;;;5097695;28;20028;-64
2023/10/17 10:40:32;;;;;;;5.32;1.13;;;23.50;89.70;;;;;;5106288;28;20042;-64
2023/10/17 10:43:01;;;;;;;3.67;1.50;;;23.50;89.00;;;;;;5111018;28;20030;-64
2023/10/17 10:45:54;;;;;;;5.38;0.98;;;23.60;87.90;;;;;;5098129;28;20024;-64
2023/10/17 10:48:18;;;;;;;2.83;0.80;;;23.60;87.80;;;;;;5102103;28;20040;-64
2023/10/17 10:50:45;;;;;;;4.07;1.20;;;23.40;87.60;;;;;;5106454;28;20482;-64
2023/10/17 10:53:22;;;;;;;2.00;0.80;;;23.00;87.50;;;;;;5114450;28;20134;-64
2023/10/17 10:55:59;;;;;;;7.25;1.30;;;22.80;88.20;;;;;;5106209;28;20034;-64
2023/10/17 10:58:26;;;;;;;3.33;1.23;;;22.70;89.70;;;;;;5106810;28;20032;-64
2023/10/17 11:00:56;;;;;;;9.07;1.83;;;22.60;88.20;;;;;;5096732;28;20052;-64
2023/10/17 11:03:22;;;;;;;5.07;1.17;;;22.60;90.10;;;;;;5105895;28;20019;-64
2023/10/17 11:06:03;;;;;;;3.63;1.25;;;22.90;88.30;;;;;;5105981;28;20012;-65
2023/10/17 11:08:46;;;;;;;5.00;1.60;;;23.00;88.70;;;;;;5106790;28;20076;-64
2023/10/17 11:11:14;;;;;;;5.13;1.27;;;23.00;88.80;;;;;;5111307;28;20036;-64
2023/10/17 11:13:45;;;;;;;3.33;1.17;;;22.90;88.50;;;;;;5096618;28;20034;-64
2023/10/17 11:16:12;;;;;;;2.25;1.25;;;22.70;88.90;;;;;;5104456;28;20488;-63
2023/10/17 11:18:43;;;;;;;4.40;1.17;;;22.80;90.30;;;;;;5098848;28;20032;-63
2023/10/17 11:21:09;;;;;;;4.43;1.45;;;22.90;88.40;;;;;;5103622;28;20107;-63
2023/10/17 11:23:41;;;;;;;3.78;1.48;;;22.60;89.40;;;;;;5098242;28;20110;-63
2023/10/17 11:26:11;;;;;;;4.28;1.98;;;22.50;88.80;;;;;;5093028;28;20046;-64
2023/10/17 11:28:42;;;;;;;4.45;1.90;;;22.30;88.90;;;;;;5108413;28;20038;-64
2023/10/17 11:31:21;;;;;;;8.77;2.60;;;22.20;89.10;;;;;;5108452;28;20467;-64
2023/10/17 11:33:52;;;;;;;3.42;1.63;;;22.10;90.10;;;;;;5100351;28;20027;-65
2023/10/17 11:36:20;;;;;;;6.38;2.25;;;22.20;89.20;;;;;;5099979;28;20112;-64
2023/10/17 11:38:55;;;;;;;4.38;1.50;;;22.20;90.00;;;;;;5095919;28;20035;-64
2023/10/17 11:41:20;;;;;;;4.85;1.80;;;22.20;89.00;;;;;;5081133;28;20038;-64
2023/10/17 11:43:53;;;;;;;1.90;1.00;;;22.20;88.90;;;;;;5105880;28;20020;-64
2023/10/17 11:46:31;;;;;;;7.75;1.40;;;22.10;88.80;;;;;;5105377;28;20080;-64
2023/10/17 11:49:30;;;;;;;8.73;2.53;;;21.80;88.90;;;;;;5096407;28;20032;-64
2023/10/17 11:52:04;;;;;;;4.95;1.75;;;21.30;90.20;;;;;;5103866;28;20051;-64
2023/10/17 11:54:30;;;;;;;5.57;2.15;;;21.10;90.00;;;;;;5103080;28;20043;-65
2023/10/17 11:57:07;;;;;;;3.40;1.23;;;20.80;90.30;;;;;;5113025;28;20071;-65
2023/10/17 11:59:33;;;;;;;5.38;1.20;;;20.80;91.10;;;;;;5097895;28;20024;-64
2023/10/17 12:02:02;;;;;;;3.25;1.10;;;20.90;90.90;;;;;;5093537;28;20058;-64
2023/10/17 12:04:27;;;;;;;3.80;1.30;;;21.00;90.60;;;;;;5105976;28;20035;-63
2023/10/17 12:06:53;;;;;;;4.18;1.30;;;21.00;90.90;;;;;;5112775;28;20065;-64
2023/10/17 12:09:22;;;;;;;6.15;1.58;;;21.10;90.50;;;;;;5096281;28;20069;-64
2023/10/17 12:11:53;;;;;;;4.78;1.35;;;21.40;90.90;;;;;;5105323;28;20112;-65
2023/10/17 12:14:19;;;;;;;5.82;1.13;;;21.50;90.40;;;;;;5104063;28;20037;-65
2023/10/17 12:16:54;;;;;;;2.55;0.77;;;21.70;90.80;;;;;;5104448;28;20028;-64
2023/10/17 12:19:27;;;;;;;4.57;1.13;;;22.00;90.20;;;;;;5094542;28;20027;-64
2023/10/17 12:21:54;;;;;;;6.43;1.17;;;21.90;90.10;;;;;;5104019;28;20063;-63
2023/10/17 12:24:29;;;;;;;4.13;1.20;;;21.90;90.00;;;;;;5104858;28;20027;-64
2023/10/17 12:26:55;;;;;;;2.63;1.10;;;21.90;90.10;;;;;;5096233;28;20111;-64
2023/10/17 12:29:25;;;;;;;4.03;1.23;;;21.80;89.70;;;;;;5108648;28;20451;-64
2023/10/17 12:31:53;;;;;;;4.28;1.05;;;21.80;90.50;;;;;;5103363;28;20345;-64
2023/10/17 12:34:19;;;;;;;5.63;1.17;;;21.70;90.30;;;;;;5104076;28;20361;-65
2023/10/17 12:36:46;;;;;;;1.92;1.10;;;21.70;90.50;;;;;;5092651;28;20040;-64
2023/10/17 12:39:13;;;;;;;2.75;0.90;;;21.60;90.20;;;;;;5095966;28;20484;-64
2023/10/17 12:41:39;;;;;;;6.40;1.27;;;21.30;90.50;;;;;;5105970;28;20456;-65
2023/10/17 12:44:05;;;;;;;4.70;1.00;;;21.10;90.20;;;;;;5102762;28;20024;-64
2023/10/17 12:46:31;;;;;;;3.92;1.23;;;20.90;90.80;;;;;;5098624;28;20035;-65
2023/10/17 12:48:57;;;;;;;7.55;1.50;;;20.70;91.10;;;;;;5108475;28;20032;-65
2023/10/17 12:51:25;;;;;;;5.47;1.60;;;20.50;91.30;;;;;;5095976;28;20545;-64
2023/10/17 12:53:51;;;;;;;3.35;1.23;;;20.40;91.20;;;;;;5112776;28;20024;-63
2023/10/17 12:56:20;;;;;;;3.60;1.10;;;20.20;91.50;;;;;;5103080;28;20047;-65
2023/10/17 12:58:46;;;;;;;3.42;1.30;;;20.10;91.60;;;;;;5112381;28;20024;-64
2023/10/17 13:01:13;;;;;;;6.35;1.27;;;19.90;91.80;;;;;;5099300;28;20107;-65
2023/10/17 13:03:40;;;;;;;5.82;1.23;;;19.70;91.60;;;;;;5109504;28;20024;-65
2023/10/17 13:06:06;;;;;;;6.68;1.20;;;19.50;91.90;;;;;;5106292;28;20020;-64
2023/10/17 13:08:32;;;;;;;4.45;1.27;;;19.30;92.50;;;;;;5102425;28;20103;-64
2023/10/17 13:10:59;;;;;;;3.13;1.42;;;19.00;92.40;;;;;;5113063;28;20486;-65
2023/10/17 13:13:25;;;;;;;4.05;1.30;;;18.70;92.80;;;;;;5100914;28;20035;-65
2023/10/17 13:15:52;;;;;;;3.83;1.33;;;18.40;93.00;;;;;;5107878;28;20032;-65
2023/10/17 13:18:19;;;;;;;6.07;1.40;;;18.10;93.50;;;;;;5108371;28;20028;-66
2023/10/17 13:20:50;;;;;;;7.53;1.70;;;17.80;93.70;;;;;;5100495;28;20057;-65
2023/10/17 13:23:17;;;;;;;5.82;1.35;;;17.50;94.00;;;;;;5112141;28;20027;-65
2023/10/17 13:25:43;;;;;;;3.63;1.02;;;17.30;94.60;;;;;;5103277;28;20118;-65
2023/10/17 13:28:10;;;;;;;5.70;1.65;;;17.10;94.80;;;;;;5105362;28;20024;-66
2023/10/17 13:30:35;;;;;;;4.13;1.35;;;16.80;95.10;;;;;;5110169;28;20031;-65
2023/10/17 13:33:01;;;;;;;3.05;1.30;;;16.60;95.60;;;;;;5099227;28;20028;-66
2023/10/17 13:35:28;;;;;;;3.90;1.33;;;16.50;95.80;;;;;;5111033;28;20388;-66
2023/10/17 13:37:55;;;;;;;2.88;1.55;;;16.30;96.10;;;;;;5104587;28;20062;-66
2023/10/17 13:40:23;;;;;;;5.20;1.92;;;16.20;96.10;;;;;;5103494;27;20126;-65
2023/10/17 13:42:52;;;;;;;5.68;2.00;;;16.10;96.50;;;;;;5112038;28;20054;-64
2023/10/17 13:45:21;;;;;;;8.48;2.38;;;16.10;96.80;;;;;;5082844;28;20073;-66
2023/10/17 13:47:50;;;;;;;4.25;1.40;;;16.00;97.10;;;;;;5108160;28;20464;-66
2023/10/17 13:50:18;;;;;;;5.43;1.85;;;16.10;97.30;;;;;;5107107;28;20030;-64
2023/10/17 13:52:48;;;;;;;6.38;1.90;;;16.10;97.00;;;;;;5099900;28;20048;-66
2023/10/17 13:55:27;;;;;;;7.70;1.92;;;16.00;97.10;;;;;;5111540;28;20123;-66
2023/10/17 13:58:00;;;;;;;6.53;1.55;;;16.00;96.90;;;;;;5104135;28;20020;-65
2023/10/17 14:00:31;;;;;;;4.68;1.65;;;15.90;96.90;;;;;;5102445;28;20136;-64
2023/10/17 14:02:57;;;;;;;3.85;1.67;;;15.80;97.20;;;;;;5111889;28;20069;-64
2023/10/17 14:05:23;;;;;;;4.65;1.92;;;15.70;97.30;;;;;;5099429;28;20031;-63
2023/10/17 14:07:48;;;;;;;4.32;1.58;;;15.60;97.50;;;;;;5106186;28;20233;-65
2023/10/17 14:10:15;;;;;;;8.35;2.47;;;15.60;97.70;;;;;;5106662;28;20027;-65
2023/10/17 14:12:41;;;;;;;8.25;2.72;;;15.50;98.20;;;;;;5099842;28;20036;-64
2023/10/17 14:15:10;;;;;;;5.03;1.92;;;15.60;98.30;;;;;;5111394;28;20081;-65
2023/10/17 14:17:36;;;;;;;6.97;2.30;;;15.50;98.30;;;;;;5100873;28;20387;-64
2023/10/17 14:20:06;;;;;;;4.82;2.08;;;15.50;98.40;;;;;;5104709;28;20019;-65
2023/10/17 14:22:38;;;;;;;4.75;1.90;;;15.50;99.00;;;;;;5095276;28;20093;-66
2023/10/17 14:25:07;;;;;;;5.95;1.73;;;15.50;98.60;;;;;;5101688;28;20675;-65
2023/10/17 14:27:32;;;;;;;6.50;2.20;;;15.50;98.70;;;;;;5101991;28;20119;-65
2023/10/17 14:29:59;;;;;;;6.80;2.05;;;15.40;98.90;;;;;;5098385;28;20315;-67
2023/10/17 14:32:26;;;;;;;6.97;1.75;;;15.40;98.80;;;;;;5095517;28;20020;-64
2023/10/17 14:34:53;;;;;;;4.70;2.50;;;15.40;99.20;;;;;;5098107;28;20032;-65
2023/10/17 14:37:20;;;;;;;7.53;2.53;;;15.40;99.40;;;;;;5094599;28;20140;-64
2023/10/17 14:39:45;;;;;;;4.22;2.20;;;15.30;99.40;;;;;;5083230;28;20055;-65
2023/10/17 14:42:13;;;;;;;8.82;2.15;;;15.30;99.30;;;;;;5086551;28;20472;-64
2023/10/17 14:44:41;;;;;;;4.63;2.10;;;15.30;99.00;;;;;;5088856;28;20047;-65
2023/10/17 14:47:06;;;;;;;7.22;2.20;;;15.20;99.60;;;;;;5084357;28;20142;-65
2023/10/17 14:49:32;;;;;;;5.82;2.00;;;15.10;99.30;;;;;;5084018;28;20096;-65
2023/10/17 14:51:58;;;;;;;4.35;1.80;;;15.10;99.30;;;;;;5082312;28;20074;-65
2023/10/17 14:54:24;;;;;;;6.53;2.88;;;15.00;99.40;;;;;;5084734;28;20050;-65
2023/10/17 14:56:53;;;;;;;7.13;2.55;;;14.90;99.90;;;;;;5095377;28;20039;-65
2023/10/17 14:59:19;;;;;;;9.18;2.08;;;14.90;99.60;;;;;;5090901;28;20103;-65
2023/10/17 15:01:46;;;;;;;7.22;2.13;;;14.80;99.80;;;;;;5085847;28;20095;-65
2023/10/17 15:04:12;;;;;;;8.70;2.40;;;14.80;99.90;;;;;;5081902;28;20464;-65
2023/10/17 15:06:37;;;;;;;7.50;2.38;;;14.70;99.90;;;;;;5083383;28;20029;-65
2023/10/17 15:09:07;;;;;;;7.60;2.22;;;14.60;99.90;;;;;;5082583;28;20388;-66
2023/10/17 15:11:33;;;;;;;7.90;2.40;;;14.50;99.90;;;;;;5082070;28;20431;-65
2023/10/17 15:14:02;;;;;;;4.75;2.15;;;14.50;99.90;;;;;;5086489;28;20028;-65
2023/10/17 15:16:27;;;;;;;5.88;2.13;;;14.40;99.90;;;;;;5086222;28;20055;-65
2023/10/17 15:18:54;;;;;;;6.60;2.13;;;14.40;99.90;;;;;;5086251;28;20342;-65